createdAt,value
2022-10-08T00:00:16.034Z,29.911
2022-10-08T00:05:15.905Z,29.915
2022-10-08T00:10:15.832Z,29.917
2022-10-08T00:15:15.956Z,29.916
2022-10-08T00:20:16.087Z,29.919
2022-10-08T00:25:15.896Z,29.924
2022-10-08T00:30:15.904Z,29.925
2022-10-08T00:35:16.048Z,29.926
2022-10-08T00:40:15.932Z,29.925
2022-10-08T00:45:15.916Z,29.928
2022-10-08T00:50:15.938Z,29.930
2022-10-08T00:55:15.943Z,29.928
2022-10-08T01:00:15.953Z,29.933
2022-10-08T01:05:16.057Z,29.933
2022-10-08T01:10:16.023Z,29.936
2022-10-08T01:15:16.097Z,29.937
2022-10-08T01:20:16.058Z,29.943
2022-10-08T01:25:16.147Z,29.942
2022-10-08T01:30:16.072Z,29.939
2022-10-08T01:35:16.047Z,29.944
2022-10-08T01:40:16.107Z,29.947
2022-10-08T01:45:16.145Z,29.947
2022-10-08T01:50:16.036Z,29.950
2022-10-08T01:55:16.047Z,29.952
2022-10-08T02:00:16.169Z,29.955
2022-10-08T02:05:16.159Z,29.953
2022-10-08T02:10:16.239Z,29.957
2022-10-08T02:15:16.202Z,29.960
2022-10-08T02:20:16.008Z,29.964
2022-10-08T02:25:16.112Z,29.968
2022-10-08T02:30:16.219Z,29.968
2022-10-08T02:35:16.349Z,29.967
2022-10-08T02:40:16.275Z,29.964
2022-10-08T02:45:16.292Z,29.968
2022-10-08T02:50:16.362Z,29.966
2022-10-08T02:55:16.213Z,29.968
2022-10-08T03:00:16.240Z,29.973
2022-10-08T03:05:16.146Z,29.972
2022-10-08T03:10:16.316Z,29.977
2022-10-08T03:15:16.248Z,29.980
2022-10-08T03:20:16.276Z,29.981
2022-10-08T03:25:16.430Z,29.984
2022-10-08T03:30:16.279Z,29.985
2022-10-08T03:35:16.258Z,29.986
2022-10-08T03:40:16.440Z,29.986
2022-10-08T03:45:16.316Z,29.988
2022-10-08T03:50:16.302Z,29.989
2022-10-08T03:55:16.402Z,29.990
2022-10-08T04:00:17.457Z,29.987
2022-10-08T04:05:17.338Z,29.989
2022-10-08T04:10:17.357Z,29.989
2022-10-08T04:15:17.296Z,29.990
2022-10-08T04:20:15.325Z,29.994
2022-10-08T04:25:15.483Z,29.995
2022-10-08T04:30:15.485Z,29.993
2022-10-08T04:35:15.665Z,29.993
2022-10-08T04:40:15.418Z,29.993
2022-10-08T04:45:15.695Z,29.996
2022-10-08T04:50:15.436Z,30.001
2022-10-08T04:55:15.487Z,30.005
2022-10-08T05:00:18.291Z,30.008
2022-10-08T05:05:15.655Z,30.008
2022-10-08T05:10:15.429Z,30.008
2022-10-08T05:15:15.543Z,30.009
2022-10-08T05:20:15.446Z,30.010
2022-10-08T05:25:15.444Z,30.009
2022-10-08T05:30:19.735Z,30.008
2022-10-08T05:35:15.549Z,30.008
2022-10-08T05:40:15.649Z,30.010
2022-10-08T05:45:15.531Z,30.010
2022-10-08T05:50:15.566Z,30.008
2022-10-08T05:55:15.535Z,30.008
2022-10-08T06:00:15.559Z,30.011
2022-10-08T06:05:15.733Z,30.011
2022-10-08T06:10:15.706Z,30.011
2022-10-08T06:15:15.540Z,30.012
2022-10-08T06:20:15.505Z,30.009
2022-10-08T06:25:15.735Z,30.012
2022-10-08T06:30:15.592Z,30.015
2022-10-08T06:35:15.616Z,30.019
2022-10-08T06:40:15.664Z,30.016
2022-10-08T06:45:15.726Z,30.016
2022-10-08T06:50:15.620Z,30.014
2022-10-08T06:55:15.785Z,30.012
2022-10-08T07:00:15.682Z,30.011
2022-10-08T07:05:15.812Z,30.012
2022-10-08T07:10:18.501Z,30.013
2022-10-08T07:15:15.771Z,30.015
2022-10-08T07:20:15.696Z,30.015
2022-10-08T07:25:15.725Z,30.014
2022-10-08T07:30:15.869Z,30.016
2022-10-08T07:35:15.755Z,30.021
2022-10-08T07:40:15.772Z,30.019
2022-10-08T07:45:15.834Z,30.020
2022-10-08T07:50:15.796Z,30.025
2022-10-08T07:55:15.939Z,30.027
2022-10-08T08:00:15.883Z,30.028
2022-10-08T08:05:15.809Z,30.033
2022-10-08T08:10:16.015Z,30.044
2022-10-08T08:15:15.919Z,30.047
2022-10-08T08:20:15.936Z,30.045
2022-10-08T08:25:15.887Z,30.046
2022-10-08T08:30:15.877Z,30.047
2022-10-08T08:35:15.876Z,30.047
2022-10-08T08:40:15.970Z,30.047
2022-10-08T08:45:41.445Z,30.043
2022-10-08T08:50:15.899Z,30.040
2022-10-08T08:55:15.949Z,30.042
2022-10-08T09:00:16.048Z,30.041
2022-10-08T09:05:16.043Z,30.042
2022-10-08T09:10:15.934Z,30.044
2022-10-08T09:15:15.920Z,30.040
2022-10-08T09:20:16.056Z,30.043
2022-10-08T09:25:16.096Z,30.050
2022-10-08T09:30:15.971Z,30.049
2022-10-08T09:35:16.148Z,30.062
2022-10-08T09:40:16.017Z,30.066
2022-10-08T09:45:20.231Z,30.061
2022-10-08T09:50:16.063Z,30.065
2022-10-08T09:55:16.127Z,30.072
2022-10-08T10:00:16.046Z,30.060
2022-10-08T10:05:16.162Z,30.066
2022-10-08T10:10:16.036Z,30.067
2022-10-08T10:15:16.126Z,30.059
2022-10-08T10:20:16.158Z,30.071
2022-10-08T10:25:16.102Z,30.067
2022-10-08T10:30:16.229Z,30.062
2022-10-08T10:35:16.121Z,30.066
2022-10-08T10:40:16.332Z,30.067
2022-10-08T10:45:16.185Z,30.067
2022-10-08T10:50:16.167Z,30.059
2022-10-08T10:55:16.191Z,30.060
2022-10-08T11:00:16.480Z,30.064
2022-10-08T11:05:16.287Z,30.065
2022-10-08T11:10:16.230Z,30.071
2022-10-08T11:15:16.275Z,30.072
2022-10-08T11:20:16.218Z,30.081
2022-10-08T11:25:16.297Z,30.082
2022-10-08T11:30:16.400Z,30.088
2022-10-08T11:35:16.316Z,30.085
2022-10-08T11:40:16.389Z,30.083
2022-10-08T11:45:16.232Z,30.087
2022-10-08T11:50:16.279Z,30.092
2022-10-08T11:55:16.644Z,30.088
2022-10-08T12:00:16.824Z,30.089
2022-10-08T12:05:16.453Z,30.092
2022-10-08T12:10:16.394Z,30.094
2022-10-08T12:15:16.365Z,30.097
2022-10-08T12:20:16.210Z,30.103
2022-10-08T12:25:16.412Z,30.100
2022-10-08T12:30:16.517Z,30.099
2022-10-08T12:35:16.364Z,30.103
2022-10-08T12:40:16.545Z,30.104
2022-10-08T12:45:16.390Z,30.104
2022-10-08T12:50:16.460Z,30.101
2022-10-08T12:55:16.420Z,30.103
2022-10-08T13:00:16.400Z,30.106
2022-10-08T13:05:16.452Z,30.104
2022-10-08T13:10:16.538Z,30.112
2022-10-08T13:15:16.576Z,30.112
2022-10-08T13:20:16.397Z,30.107
2022-10-08T13:25:16.467Z,30.110
2022-10-08T13:30:16.434Z,30.110
2022-10-08T13:35:16.564Z,30.111
2022-10-08T13:40:16.488Z,30.113
2022-10-08T13:45:16.525Z,30.114
2022-10-08T13:50:16.538Z,30.113
2022-10-08T13:55:16.507Z,30.114
2022-10-08T14:00:16.517Z,30.116
2022-10-08T14:05:16.552Z,30.114
2022-10-08T14:10:16.536Z,30.117
2022-10-08T14:15:16.608Z,30.115
2022-10-08T14:20:16.570Z,30.118
2022-10-08T14:25:16.727Z,30.119
2022-10-08T14:30:16.691Z,30.118
2022-10-08T14:35:16.786Z,30.121
2022-10-08T14:40:16.697Z,30.117
2022-10-08T14:45:16.673Z,30.116
2022-10-08T14:50:16.624Z,30.117
2022-10-08T14:55:16.638Z,30.116
2022-10-08T15:00:16.682Z,30.117
2022-10-08T15:05:16.700Z,30.120
2022-10-08T15:10:16.836Z,30.116
2022-10-08T15:15:16.705Z,30.115
2022-10-08T15:20:16.671Z,30.113
2022-10-08T15:25:16.763Z,30.112
2022-10-08T15:30:16.715Z,30.112
2022-10-08T15:35:16.897Z,30.113
2022-10-08T15:40:16.828Z,30.113
2022-10-08T15:45:16.878Z,30.108
2022-10-08T15:50:16.816Z,30.107
2022-10-08T15:55:16.757Z,30.106
2022-10-08T16:00:16.906Z,30.105
2022-10-08T16:05:16.776Z,30.108
2022-10-08T16:30:16.976Z,30.101
2022-10-08T16:35:16.920Z,30.098
2022-10-08T16:40:16.806Z,30.096
2022-10-08T16:45:16.936Z,30.096
2022-10-08T16:50:16.826Z,30.092
2022-10-08T16:55:16.877Z,30.091
2022-10-08T17:00:16.917Z,30.090
2022-10-08T17:05:16.991Z,30.087
2022-10-08T17:10:16.903Z,30.084
2022-10-08T17:15:16.936Z,30.083
2022-10-08T17:20:17.036Z,30.082
2022-10-08T17:25:17.029Z,30.083
2022-10-08T17:30:16.979Z,30.081
2022-10-08T17:35:17.101Z,30.083
2022-10-08T17:40:16.970Z,30.080
2022-10-08T17:45:16.949Z,30.077
2022-10-08T17:50:16.999Z,30.077
2022-10-08T17:55:17.339Z,30.074
2022-10-08T18:00:17.089Z,30.073
2022-10-08T18:05:17.065Z,30.069
2022-10-08T18:10:17.421Z,30.070
2022-10-08T18:15:17.014Z,30.066
2022-10-08T18:20:16.988Z,30.065
2022-10-08T18:25:17.320Z,30.063
2022-10-08T18:30:17.012Z,30.063
2022-10-08T18:35:17.244Z,30.061
2022-10-08T18:40:17.145Z,30.060
2022-10-08T18:45:17.245Z,30.056
2022-10-08T18:50:17.154Z,30.053
2022-10-08T18:55:17.167Z,30.052
2022-10-08T19:00:17.099Z,30.050
2022-10-08T19:05:17.145Z,30.050
2022-10-08T19:10:17.158Z,30.052
2022-10-08T19:15:17.293Z,30.048
2022-10-08T19:20:17.188Z,30.049
2022-10-08T19:25:17.185Z,30.046
2022-10-08T19:30:19.367Z,30.047
2022-10-08T19:35:17.235Z,30.047
2022-10-08T19:40:17.123Z,30.047
2022-10-08T19:45:17.197Z,30.046
2022-10-08T19:50:17.248Z,30.046
2022-10-08T19:55:17.312Z,30.044
2022-10-08T20:00:17.406Z,30.044
2022-10-08T20:05:17.270Z,30.045
2022-10-08T20:10:17.206Z,30.043
2022-10-08T20:15:17.320Z,30.043
2022-10-08T20:20:32.389Z,30.042
2022-10-08T20:25:17.302Z,30.040
2022-10-08T20:30:17.354Z,30.042
2022-10-08T20:35:17.289Z,30.041
2022-10-08T20:40:17.619Z,30.043
2022-10-08T20:45:17.533Z,30.041
2022-10-08T20:50:17.622Z,30.040
2022-10-08T20:55:17.379Z,30.042
2022-10-08T21:00:17.392Z,30.041
2022-10-08T21:05:15.385Z,30.041
2022-10-08T21:10:15.371Z,30.042
2022-10-08T21:15:15.389Z,30.039
2022-10-08T21:20:15.516Z,30.040
2022-10-08T21:25:15.439Z,30.041
2022-10-08T21:30:15.419Z,30.043
2022-10-08T21:35:15.471Z,30.044
2022-10-08T21:40:15.493Z,30.042
2022-10-08T21:45:15.529Z,30.043
2022-10-08T21:50:15.589Z,30.046
2022-10-08T21:55:15.480Z,30.046
2022-10-08T22:00:15.624Z,30.048
2022-10-08T22:05:15.490Z,30.048
2022-10-08T22:10:15.662Z,30.050
2022-10-08T22:15:15.489Z,30.053
2022-10-08T22:20:15.440Z,30.055
2022-10-08T22:25:15.588Z,30.056
2022-10-08T22:30:15.575Z,30.058
2022-10-08T22:35:15.775Z,30.058
2022-10-08T22:40:15.654Z,30.057
2022-10-08T22:45:15.610Z,30.060
2022-10-08T22:50:15.699Z,30.059
2022-10-08T22:55:15.644Z,30.056
2022-10-08T23:00:15.614Z,30.059
2022-10-08T23:05:15.627Z,30.063
2022-10-08T23:10:15.632Z,30.063
2022-10-08T23:15:15.755Z,30.066
2022-10-08T23:20:15.573Z,30.066
2022-10-08T23:25:15.687Z,30.069
2022-10-08T23:30:41.209Z,30.072
2022-10-08T23:35:15.696Z,30.073
2022-10-08T23:40:15.712Z,30.071
2022-10-08T23:45:15.752Z,30.069
2022-10-08T23:50:15.817Z,30.070
2022-10-08T23:55:15.749Z,30.072
